sensor_id;sensor_type;location;lat;lon;timestamp;P1;durP1;ratioP1;P2;durP2;ratioP2
10725;SDS011;5414;59.782;16.378;2023-04-06T00:01:12;3.93;;;2.63;;
10725;SDS011;5414;59.782;16.378;2023-04-06T00:03:38;3.30;;;2.90;;
10725;SDS011;5414;59.782;16.378;2023-04-06T00:06:04;3.43;;;3.00;;
10725;SDS011;5414;59.782;16.378;2023-04-06T00:08:30;3.47;;;3.10;;
10725;SDS011;5414;59.782;16.378;2023-04-06T00:10:56;4.30;;;3.10;;
10725;SDS011;5414;59.782;16.378;2023-04-06T00:13:22;3.73;;;3.23;;
10725;SDS011;5414;59.782;16.378;2023-04-06T00:15:48;4.00;;;3.20;;
10725;SDS011;5414;59.782;16.378;2023-04-06T00:18:14;3.40;;;2.70;;
10725;SDS011;5414;59.782;16.378;2023-04-06T00:20:41;4.13;;;3.30;;
10725;SDS011;5414;59.782;16.378;2023-04-06T00:23:07;4.73;;;3.13;;
10725;SDS011;5414;59.782;16.378;2023-04-06T00:25:33;3.73;;;3.07;;
10725;SDS011;5414;59.782;16.378;2023-04-06T00:27:59;3.70;;;2.97;;
10725;SDS011;5414;59.782;16.378;2023-04-06T00:30:25;3.63;;;2.97;;
10725;SDS011;5414;59.782;16.378;2023-04-06T00:32:51;3.57;;;2.93;;
10725;SDS011;5414;59.782;16.378;2023-04-06T00:35:17;4.00;;;3.13;;
10725;SDS011;5414;59.782;16.378;2023-04-06T00:37:45;3.73;;;3.23;;
10725;SDS011;5414;59.782;16.378;2023-04-06T00:40:12;3.57;;;3.27;;
10725;SDS011;5414;59.782;16.378;2023-04-06T00:42:38;3.43;;;2.97;;
10725;SDS011;5414;59.782;16.378;2023-04-06T00:45:04;4.67;;;3.13;;
10725;SDS011;5414;59.782;16.378;2023-04-06T00:47:30;3.97;;;3.23;;
10725;SDS011;5414;59.782;16.378;2023-04-06T00:49:56;4.27;;;3.30;;
10725;SDS011;5414;59.782;16.378;2023-04-06T00:52:22;3.53;;;3.23;;
10725;SDS011;5414;59.782;16.378;2023-04-06T00:54:49;4.57;;;3.37;;
10725;SDS011;5414;59.782;16.378;2023-04-06T00:57:15;4.63;;;3.27;;
10725;SDS011;5414;59.782;16.378;2023-04-06T00:59:42;4.00;;;3.70;;
10725;SDS011;5414;59.782;16.378;2023-04-06T01:02:08;3.83;;;3.43;;
10725;SDS011;5414;59.782;16.378;2023-04-06T01:04:35;4.97;;;3.83;;
10725;SDS011;5414;59.782;16.378;2023-04-06T01:07:01;4.17;;;3.77;;
10725;SDS011;5414;59.782;16.378;2023-04-06T01:09:28;6.17;;;4.00;;
10725;SDS011;5414;59.782;16.378;2023-04-06T01:11:55;4.63;;;3.80;;
10725;SDS011;5414;59.782;16.378;2023-04-06T01:14:21;4.57;;;4.07;;
10725;SDS011;5414;59.782;16.378;2023-04-06T01:16:48;4.77;;;3.60;;
10725;SDS011;5414;59.782;16.378;2023-04-06T01:19:14;4.10;;;3.57;;
10725;SDS011;5414;59.782;16.378;2023-04-06T01:21:40;4.90;;;4.07;;
10725;SDS011;5414;59.782;16.378;2023-04-06T01:24:06;4.27;;;3.53;;
10725;SDS011;5414;59.782;16.378;2023-04-06T01:26:33;4.10;;;3.70;;
10725;SDS011;5414;59.782;16.378;2023-04-06T01:28:59;5.40;;;3.57;;
10725;SDS011;5414;59.782;16.378;2023-04-06T01:31:25;4.40;;;3.80;;
10725;SDS011;5414;59.782;16.378;2023-04-06T01:33:52;4.93;;;4.03;;
10725;SDS011;5414;59.782;16.378;2023-04-06T01:36:18;4.10;;;3.70;;
10725;SDS011;5414;59.782;16.378;2023-04-06T01:38:45;4.17;;;3.73;;
10725;SDS011;5414;59.782;16.378;2023-04-06T01:41:11;4.60;;;3.93;;
10725;SDS011;5414;59.782;16.378;2023-04-06T01:43:37;3.93;;;3.53;;
10725;SDS011;5414;59.782;16.378;2023-04-06T01:46:03;4.37;;;3.60;;
10725;SDS011;5414;59.782;16.378;2023-04-06T01:48:29;3.97;;;3.57;;
10725;SDS011;5414;59.782;16.378;2023-04-06T01:50:55;5.13;;;3.90;;
10725;SDS011;5414;59.782;16.378;2023-04-06T01:53:21;4.50;;;4.07;;
10725;SDS011;5414;59.782;16.378;2023-04-06T01:55:47;4.60;;;3.60;;
10725;SDS011;5414;59.782;16.378;2023-04-06T01:58:13;4.30;;;3.87;;
10725;SDS011;5414;59.782;16.378;2023-04-06T02:00:39;4.23;;;3.77;;
10725;SDS011;5414;59.782;16.378;2023-04-06T02:03:05;4.57;;;3.70;;
10725;SDS011;5414;59.782;16.378;2023-04-06T02:05:32;4.83;;;4.00;;
10725;SDS011;5414;59.782;16.378;2023-04-06T02:08:03;5.17;;;3.47;;
10725;SDS011;5414;59.782;16.378;2023-04-06T02:10:30;4.67;;;3.50;;
10725;SDS011;5414;59.782;16.378;2023-04-06T02:12:56;4.37;;;3.60;;
10725;SDS011;5414;59.782;16.378;2023-04-06T02:15:22;4.80;;;3.97;;
10725;SDS011;5414;59.782;16.378;2023-04-06T02:17:48;4.33;;;3.37;;
10725;SDS011;5414;59.782;16.378;2023-04-06T02:20:14;4.07;;;3.67;;
10725;SDS011;5414;59.782;16.378;2023-04-06T02:22:40;3.90;;;3.50;;
10725;SDS011;5414;59.782;16.378;2023-04-06T02:25:06;6.10;;;4.13;;
10725;SDS011;5414;59.782;16.378;2023-04-06T02:27:32;4.57;;;3.77;;
10725;SDS011;5414;59.782;16.378;2023-04-06T02:29:59;4.80;;;3.60;;
10725;SDS011;5414;59.782;16.378;2023-04-06T02:32:25;4.20;;;3.80;;
10725;SDS011;5414;59.782;16.378;2023-04-06T02:34:51;4.07;;;3.67;;
10725;SDS011;5414;59.782;16.378;2023-04-06T02:37:17;4.20;;;3.70;;
10725;SDS011;5414;59.782;16.378;2023-04-06T02:39:43;4.47;;;3.93;;
10725;SDS011;5414;59.782;16.378;2023-04-06T02:42:09;4.67;;;3.73;;
10725;SDS011;5414;59.782;16.378;2023-04-06T02:44:35;4.27;;;3.77;;
10725;SDS011;5414;59.782;16.378;2023-04-06T02:47:01;4.23;;;3.83;;
10725;SDS011;5414;59.782;16.378;2023-04-06T02:49:27;4.20;;;3.70;;
10725;SDS011;5414;59.782;16.378;2023-04-06T02:51:54;5.23;;;3.80;;
10725;SDS011;5414;59.782;16.378;2023-04-06T02:54:20;4.53;;;3.73;;
10725;SDS011;5414;59.782;16.378;2023-04-06T02:56:46;4.70;;;4.10;;
10725;SDS011;5414;59.782;16.378;2023-04-06T02:59:12;4.27;;;3.30;;
10725;SDS011;5414;59.782;16.378;2023-04-06T03:01:38;4.30;;;3.70;;
10725;SDS011;5414;59.782;16.378;2023-04-06T03:04:04;4.37;;;3.97;;
10725;SDS011;5414;59.782;16.378;2023-04-06T03:06:30;4.40;;;3.87;;
10725;SDS011;5414;59.782;16.378;2023-04-06T03:08:56;4.30;;;3.90;;
10725;SDS011;5414;59.782;16.378;2023-04-06T03:11:22;6.47;;;4.30;;
10725;SDS011;5414;59.782;16.378;2023-04-06T03:13:48;4.60;;;3.80;;
10725;SDS011;5414;59.782;16.378;2023-04-06T03:16:15;4.47;;;3.93;;
10725;SDS011;5414;59.782;16.378;2023-04-06T03:18:41;4.70;;;4.00;;
10725;SDS011;5414;59.782;16.378;2023-04-06T03:21:09;4.23;;;3.83;;
10725;SDS011;5414;59.782;16.378;2023-04-06T03:23:35;4.83;;;3.63;;
10725;SDS011;5414;59.782;16.378;2023-04-06T03:26:02;4.70;;;4.10;;
10725;SDS011;5414;59.782;16.378;2023-04-06T03:28:29;4.20;;;3.80;;
10725;SDS011;5414;59.782;16.378;2023-04-06T03:30:55;4.10;;;3.40;;
10725;SDS011;5414;59.782;16.378;2023-04-06T03:33:21;3.97;;;3.57;;
10725;SDS011;5414;59.782;16.378;2023-04-06T03:35:47;4.07;;;3.67;;
10725;SDS011;5414;59.782;16.378;2023-04-06T03:38:13;5.00;;;3.93;;
10725;SDS011;5414;59.782;16.378;2023-04-06T03:40:39;3.90;;;3.53;;
10725;SDS011;5414;59.782;16.378;2023-04-06T03:43:05;6.10;;;4.03;;
10725;SDS011;5414;59.782;16.378;2023-04-06T03:45:31;4.50;;;4.10;;
10725;SDS011;5414;59.782;16.378;2023-04-06T03:47:57;5.43;;;4.03;;
10725;SDS011;5414;59.782;16.378;2023-04-06T03:50:23;5.43;;;4.00;;
10725;SDS011;5414;59.782;16.378;2023-04-06T03:52:50;5.20;;;4.00;;
10725;SDS011;5414;59.782;16.378;2023-04-06T03:55:16;4.63;;;3.80;;
10725;SDS011;5414;59.782;16.378;2023-04-06T03:57:42;5.20;;;4.00;;
10725;SDS011;5414;59.782;16.378;2023-04-06T04:00:08;4.63;;;4.17;;
10725;SDS011;5414;59.782;16.378;2023-04-06T04:02:34;4.37;;;3.97;;
10725;SDS011;5414;59.782;16.378;2023-04-06T04:05:00;4.57;;;3.90;;
10725;SDS011;5414;59.782;16.378;2023-04-06T04:07:27;4.00;;;3.60;;
10725;SDS011;5414;59.782;16.378;2023-04-06T04:09:53;4.20;;;3.80;;
10725;SDS011;5414;59.782;16.378;2023-04-06T04:12:19;5.63;;;3.80;;
10725;SDS011;5414;59.782;16.378;2023-04-06T04:14:46;5.50;;;4.40;;
10725;SDS011;5414;59.782;16.378;2023-04-06T04:17:12;4.57;;;3.77;;
10725;SDS011;5414;59.782;16.378;2023-04-06T04:19:38;5.67;;;4.20;;
10725;SDS011;5414;59.782;16.378;2023-04-06T04:22:05;4.13;;;3.73;;
10725;SDS011;5414;59.782;16.378;2023-04-06T04:24:31;4.40;;;4.00;;
10725;SDS011;5414;59.782;16.378;2023-04-06T04:26:58;5.93;;;4.07;;
10725;SDS011;5414;59.782;16.378;2023-04-06T04:29:24;4.97;;;4.20;;
10725;SDS011;5414;59.782;16.378;2023-04-06T04:31:50;4.93;;;4.10;;
10725;SDS011;5414;59.782;16.378;2023-04-06T04:34:17;4.63;;;4.17;;
10725;SDS011;5414;59.782;16.378;2023-04-06T04:36:45;5.43;;;4.17;;
10725;SDS011;5414;59.782;16.378;2023-04-06T04:39:11;4.43;;;4.03;;
10725;SDS011;5414;59.782;16.378;2023-04-06T04:41:37;5.20;;;4.03;;
10725;SDS011;5414;59.782;16.378;2023-04-06T04:44:03;5.47;;;3.90;;
10725;SDS011;5414;59.782;16.378;2023-04-06T04:46:30;5.27;;;3.90;;
10725;SDS011;5414;59.782;16.378;2023-04-06T04:48:56;4.50;;;3.97;;
10725;SDS011;5414;59.782;16.378;2023-04-06T04:51:22;3.67;;;3.37;;
10725;SDS011;5414;59.782;16.378;2023-04-06T04:53:49;5.73;;;4.10;;
10725;SDS011;5414;59.782;16.378;2023-04-06T04:56:15;4.40;;;4.00;;
10725;SDS011;5414;59.782;16.378;2023-04-06T04:58:41;4.63;;;4.20;;
10725;SDS011;5414;59.782;16.378;2023-04-06T05:01:08;4.80;;;3.83;;
10725;SDS011;5414;59.782;16.378;2023-04-06T05:03:34;4.50;;;4.10;;
10725;SDS011;5414;59.782;16.378;2023-04-06T05:06:00;5.37;;;4.20;;
10725;SDS011;5414;59.782;16.378;2023-04-06T05:08:27;4.77;;;3.93;;
10725;SDS011;5414;59.782;16.378;2023-04-06T05:10:53;3.90;;;3.50;;
10725;SDS011;5414;59.782;16.378;2023-04-06T05:13:19;4.37;;;3.80;;
10725;SDS011;5414;59.782;16.378;2023-04-06T05:15:45;5.43;;;4.43;;
10725;SDS011;5414;59.782;16.378;2023-04-06T05:18:11;5.83;;;4.47;;
10725;SDS011;5414;59.782;16.378;2023-04-06T05:20:38;4.77;;;4.03;;
10725;SDS011;5414;59.782;16.378;2023-04-06T05:23:05;5.37;;;4.63;;
10725;SDS011;5414;59.782;16.378;2023-04-06T05:25:31;5.50;;;4.83;;
10725;SDS011;5414;59.782;16.378;2023-04-06T05:27:58;6.97;;;4.57;;
10725;SDS011;5414;59.782;16.378;2023-04-06T05:30:24;5.50;;;4.70;;
10725;SDS011;5414;59.782;16.378;2023-04-06T05:32:50;6.10;;;5.13;;
10725;SDS011;5414;59.782;16.378;2023-04-06T05:35:16;6.17;;;4.53;;
10725;SDS011;5414;59.782;16.378;2023-04-06T05:37:42;6.77;;;5.60;;
10725;SDS011;5414;59.782;16.378;2023-04-06T05:40:09;5.67;;;4.90;;
10725;SDS011;5414;59.782;16.378;2023-04-06T05:42:38;8.17;;;5.90;;
10725;SDS011;5414;59.782;16.378;2023-04-06T05:45:06;6.43;;;5.47;;
10725;SDS011;5414;59.782;16.378;2023-04-06T05:47:32;5.60;;;5.03;;
10725;SDS011;5414;59.782;16.378;2023-04-06T05:49:58;6.43;;;5.20;;
10725;SDS011;5414;59.782;16.378;2023-04-06T05:52:24;5.40;;;4.90;;
10725;SDS011;5414;59.782;16.378;2023-04-06T05:54:50;6.93;;;5.33;;
10725;SDS011;5414;59.782;16.378;2023-04-06T05:57:16;6.77;;;5.47;;
10725;SDS011;5414;59.782;16.378;2023-04-06T05:59:43;7.37;;;5.40;;
10725;SDS011;5414;59.782;16.378;2023-04-06T06:02:09;5.73;;;4.87;;
10725;SDS011;5414;59.782;16.378;2023-04-06T06:04:35;5.33;;;4.83;;
10725;SDS011;5414;59.782;16.378;2023-04-06T06:07:01;7.57;;;5.30;;
10725;SDS011;5414;59.782;16.378;2023-04-06T06:09:28;6.37;;;5.47;;
10725;SDS011;5414;59.782;16.378;2023-04-06T06:11:54;7.00;;;5.70;;
10725;SDS011;5414;59.782;16.378;2023-04-06T06:14:20;6.57;;;5.30;;
10725;SDS011;5414;59.782;16.378;2023-04-06T06:16:47;6.57;;;5.17;;
10725;SDS011;5414;59.782;16.378;2023-04-06T06:19:13;6.90;;;5.17;;
10725;SDS011;5414;59.782;16.378;2023-04-06T06:21:39;7.23;;;5.70;;
10725;SDS011;5414;59.782;16.378;2023-04-06T06:24:06;5.90;;;5.30;;
10725;SDS011;5414;59.782;16.378;2023-04-06T06:26:32;5.93;;;4.83;;
10725;SDS011;5414;59.782;16.378;2023-04-06T06:29:00;6.90;;;5.40;;
10725;SDS011;5414;59.782;16.378;2023-04-06T06:31:26;6.27;;;4.90;;
10725;SDS011;5414;59.782;16.378;2023-04-06T06:33:52;5.80;;;5.10;;
10725;SDS011;5414;59.782;16.378;2023-04-06T06:36:18;5.67;;;4.93;;
10725;SDS011;5414;59.782;16.378;2023-04-06T06:38:45;5.57;;;4.97;;
10725;SDS011;5414;59.782;16.378;2023-04-06T06:41:11;5.83;;;4.87;;
10725;SDS011;5414;59.782;16.378;2023-04-06T06:43:37;5.63;;;4.63;;
10725;SDS011;5414;59.782;16.378;2023-04-06T06:46:03;4.60;;;4.20;;
10725;SDS011;5414;59.782;16.378;2023-04-06T06:48:29;5.13;;;4.57;;
10725;SDS011;5414;59.782;16.378;2023-04-06T06:50:55;5.17;;;4.10;;
10725;SDS011;5414;59.782;16.378;2023-04-06T06:53:22;6.17;;;4.30;;
10725;SDS011;5414;59.782;16.378;2023-04-06T06:55:49;4.23;;;3.83;;
10725;SDS011;5414;59.782;16.378;2023-04-06T06:58:17;4.67;;;4.00;;
10725;SDS011;5414;59.782;16.378;2023-04-06T07:00:43;4.20;;;3.80;;
10725;SDS011;5414;59.782;16.378;2023-04-06T07:03:10;4.53;;;3.97;;
10725;SDS011;5414;59.782;16.378;2023-04-06T07:05:36;5.07;;;3.77;;
10725;SDS011;5414;59.782;16.378;2023-04-06T07:08:02;4.77;;;4.27;;
10725;SDS011;5414;59.782;16.378;2023-04-06T07:10:28;4.40;;;4.00;;
10725;SDS011;5414;59.782;16.378;2023-04-06T07:12:54;5.40;;;4.20;;
10725;SDS011;5414;59.782;16.378;2023-04-06T07:15:20;4.80;;;4.37;;
10725;SDS011;5414;59.782;16.378;2023-04-06T07:17:46;4.93;;;4.43;;
10725;SDS011;5414;59.782;16.378;2023-04-06T07:20:13;4.97;;;3.97;;
10725;SDS011;5414;59.782;16.378;2023-04-06T07:22:40;4.57;;;4.17;;
10725;SDS011;5414;59.782;16.378;2023-04-06T07:25:06;4.83;;;3.63;;
10725;SDS011;5414;59.782;16.378;2023-04-06T07:27:32;5.23;;;3.80;;
10725;SDS011;5414;59.782;16.378;2023-04-06T07:29:58;3.97;;;3.67;;
10725;SDS011;5414;59.782;16.378;2023-04-06T07:32:25;4.30;;;4.00;;
10725;SDS011;5414;59.782;16.378;2023-04-06T07:34:51;3.90;;;3.60;;
10725;SDS011;5414;59.782;16.378;2023-04-06T07:37:17;4.87;;;3.80;;
10725;SDS011;5414;59.782;16.378;2023-04-06T07:39:43;4.67;;;3.70;;
10725;SDS011;5414;59.782;16.378;2023-04-06T07:42:10;3.97;;;3.57;;
10725;SDS011;5414;59.782;16.378;2023-04-06T07:44:36;4.00;;;3.50;;
10725;SDS011;5414;59.782;16.378;2023-04-06T07:47:02;4.77;;;3.37;;
10725;SDS011;5414;59.782;16.378;2023-04-06T07:49:28;3.60;;;3.30;;
10725;SDS011;5414;59.782;16.378;2023-04-06T07:51:54;3.57;;;3.27;;
10725;SDS011;5414;59.782;16.378;2023-04-06T07:54:20;4.20;;;3.70;;
10725;SDS011;5414;59.782;16.378;2023-04-06T07:56:46;4.07;;;3.50;;
10725;SDS011;5414;59.782;16.378;2023-04-06T07:59:12;4.57;;;3.57;;
10725;SDS011;5414;59.782;16.378;2023-04-06T08:01:38;4.57;;;3.80;;
10725;SDS011;5414;59.782;16.378;2023-04-06T08:04:04;4.50;;;3.50;;
10725;SDS011;5414;59.782;16.378;2023-04-06T08:06:30;4.43;;;3.53;;
10725;SDS011;5414;59.782;16.378;2023-04-06T08:08:56;4.20;;;3.47;;
10725;SDS011;5414;59.782;16.378;2023-04-06T08:11:22;4.23;;;3.50;;
10725;SDS011;5414;59.782;16.378;2023-04-06T08:13:48;4.33;;;3.77;;
10725;SDS011;5414;59.782;16.378;2023-04-06T08:16:15;3.70;;;3.07;;
10725;SDS011;5414;59.782;16.378;2023-04-06T08:18:41;4.17;;;3.27;;
10725;SDS011;5414;59.782;16.378;2023-04-06T08:21:07;3.50;;;3.20;;
10725;SDS011;5414;59.782;16.378;2023-04-06T08:23:33;3.73;;;3.30;;
10725;SDS011;5414;59.782;16.378;2023-04-06T08:25:59;5.10;;;3.23;;
10725;SDS011;5414;59.782;16.378;2023-04-06T08:28:25;5.13;;;3.37;;
10725;SDS011;5414;59.782;16.378;2023-04-06T08:30:51;3.40;;;3.10;;
10725;SDS011;5414;59.782;16.378;2023-04-06T08:33:17;3.73;;;2.90;;
10725;SDS011;5414;59.782;16.378;2023-04-06T08:35:43;3.77;;;3.03;;
10725;SDS011;5414;59.782;16.378;2023-04-06T08:38:10;3.17;;;2.87;;
10725;SDS011;5414;59.782;16.378;2023-04-06T08:40:39;3.40;;;3.10;;
10725;SDS011;5414;59.782;16.378;2023-04-06T08:43:09;3.40;;;2.73;;
10725;SDS011;5414;59.782;16.378;2023-04-06T08:45:36;3.33;;;2.67;;
10725;SDS011;5414;59.782;16.378;2023-04-06T08:48:04;3.10;;;2.80;;
10725;SDS011;5414;59.782;16.378;2023-04-06T08:50:32;2.87;;;2.67;;
10725;SDS011;5414;59.782;16.378;2023-04-06T08:52:58;3.23;;;2.87;;
10725;SDS011;5414;59.782;16.378;2023-04-06T08:55:25;3.30;;;3.00;;
10725;SDS011;5414;59.782;16.378;2023-04-06T08:57:51;3.10;;;2.80;;
10725;SDS011;5414;59.782;16.378;2023-04-06T09:00:21;2.80;;;2.60;;
10725;SDS011;5414;59.782;16.378;2023-04-06T09:02:47;3.70;;;2.80;;
10725;SDS011;5414;59.782;16.378;2023-04-06T09:05:15;3.17;;;2.87;;
10725;SDS011;5414;59.782;16.378;2023-04-06T09:07:41;3.57;;;2.90;;
10725;SDS011;5414;59.782;16.378;2023-04-06T09:10:07;2.80;;;2.60;;
10725;SDS011;5414;59.782;16.378;2023-04-06T09:12:33;2.60;;;2.40;;
10725;SDS011;5414;59.782;16.378;2023-04-06T09:15:00;2.90;;;2.60;;
10725;SDS011;5414;59.782;16.378;2023-04-06T09:17:30;3.03;;;2.57;;
10725;SDS011;5414;59.782;16.378;2023-04-06T09:19:59;3.30;;;3.00;;
10725;SDS011;5414;59.782;16.378;2023-04-06T09:22:25;3.03;;;2.73;;
10725;SDS011;5414;59.782;16.378;2023-04-06T09:24:53;4.27;;;2.77;;
10725;SDS011;5414;59.782;16.378;2023-04-06T09:32:30;3.20;;;2.90;;
10725;SDS011;5414;59.782;16.378;2023-04-06T09:35:08;3.23;;;2.93;;
10725;SDS011;5414;59.782;16.378;2023-04-06T09:37:34;3.77;;;2.70;;
10725;SDS011;5414;59.782;16.378;2023-04-06T09:40:04;2.33;;;1.73;;
10725;SDS011;5414;59.782;16.378;2023-04-06T09:42:30;2.77;;;2.10;;
10725;SDS011;5414;59.782;16.378;2023-04-06T09:44:57;2.30;;;2.03;;
10725;SDS011;5414;59.782;16.378;2023-04-06T09:47:23;2.67;;;2.23;;
10725;SDS011;5414;59.782;16.378;2023-04-06T09:49:52;3.33;;;2.50;;
10725;SDS011;5414;59.782;16.378;2023-04-06T09:52:19;3.13;;;2.60;;
10725;SDS011;5414;59.782;16.378;2023-04-06T09:54:47;2.60;;;2.40;;
10725;SDS011;5414;59.782;16.378;2023-04-06T09:57:25;3.03;;;2.73;;
10725;SDS011;5414;59.782;16.378;2023-04-06T10:02:25;3.80;;;2.57;;
10725;SDS011;5414;59.782;16.378;2023-04-06T10:04:58;3.13;;;2.43;;
10725;SDS011;5414;59.782;16.378;2023-04-06T10:07:27;3.77;;;2.60;;
10725;SDS011;5414;59.782;16.378;2023-04-06T10:09:54;2.90;;;2.60;;
10725;SDS011;5414;59.782;16.378;2023-04-06T10:12:20;2.53;;;2.20;;
10725;SDS011;5414;59.782;16.378;2023-04-06T10:14:46;2.70;;;2.50;;
10725;SDS011;5414;59.782;16.378;2023-04-06T10:17:13;3.10;;;2.80;;
10725;SDS011;5414;59.782;16.378;2023-04-06T10:19:52;4.40;;;3.00;;
10725;SDS011;5414;59.782;16.378;2023-04-06T10:22:24;3.33;;;2.90;;
10725;SDS011;5414;59.782;16.378;2023-04-06T10:24:52;2.53;;;2.20;;
10725;SDS011;5414;59.782;16.378;2023-04-06T10:27:27;2.73;;;2.10;;
10725;SDS011;5414;59.782;16.378;2023-04-06T10:29:54;2.20;;;2.00;;
10725;SDS011;5414;59.782;16.378;2023-04-06T10:32:20;2.17;;;1.97;;
10725;SDS011;5414;59.782;16.378;2023-04-06T10:34:46;2.10;;;2.00;;
10725;SDS011;5414;59.782;16.378;2023-04-06T10:37:12;2.40;;;2.20;;
10725;SDS011;5414;59.782;16.378;2023-04-06T10:39:46;3.70;;;2.70;;
10725;SDS011;5414;59.782;16.378;2023-04-06T10:42:13;2.77;;;2.23;;
10725;SDS011;5414;59.782;16.378;2023-04-06T10:44:42;3.07;;;2.50;;
10725;SDS011;5414;59.782;16.378;2023-04-06T10:47:17;2.50;;;2.30;;
10725;SDS011;5414;59.782;16.378;2023-04-06T10:49:44;3.07;;;2.77;;
10725;SDS011;5414;59.782;16.378;2023-04-06T10:52:10;2.93;;;2.63;;
10725;SDS011;5414;59.782;16.378;2023-04-06T10:54:40;3.47;;;2.60;;
10725;SDS011;5414;59.782;16.378;2023-04-06T10:57:07;3.03;;;2.73;;
10725;SDS011;5414;59.782;16.378;2023-04-06T10:59:33;3.30;;;3.00;;
10725;SDS011;5414;59.782;16.378;2023-04-06T11:01:59;3.40;;;3.07;;
10725;SDS011;5414;59.782;16.378;2023-04-06T11:04:25;3.20;;;2.80;;
10725;SDS011;5414;59.782;16.378;2023-04-06T11:06:51;3.33;;;2.90;;
10725;SDS011;5414;59.782;16.378;2023-04-06T11:09:27;3.67;;;3.13;;
10725;SDS011;5414;59.782;16.378;2023-04-06T11:11:53;3.50;;;3.20;;
10725;SDS011;5414;59.782;16.378;2023-04-06T11:14:20;4.17;;;3.17;;
10725;SDS011;5414;59.782;16.378;2023-04-06T11:16:47;2.60;;;2.40;;
10725;SDS011;5414;59.782;16.378;2023-04-06T11:19:16;3.27;;;2.97;;
10725;SDS011;5414;59.782;16.378;2023-04-06T11:24:15;3.10;;;2.80;;
10725;SDS011;5414;59.782;16.378;2023-04-06T11:29:09;3.87;;;2.73;;
10725;SDS011;5414;59.782;16.378;2023-04-06T11:31:39;3.07;;;2.53;;
10725;SDS011;5414;59.782;16.378;2023-04-06T11:34:11;2.63;;;2.40;;
10725;SDS011;5414;59.782;16.378;2023-04-06T11:36:39;3.20;;;2.90;;
10725;SDS011;5414;59.782;16.378;2023-04-06T11:39:06;6.10;;;2.60;;
10725;SDS011;5414;59.782;16.378;2023-04-06T11:41:32;3.03;;;2.00;;
10725;SDS011;5414;59.782;16.378;2023-04-06T11:44:00;1.97;;;1.80;;
10725;SDS011;5414;59.782;16.378;2023-04-06T11:46:27;3.70;;;2.30;;
10725;SDS011;5414;59.782;16.378;2023-04-06T11:48:57;2.67;;;2.00;;
10725;SDS011;5414;59.782;16.378;2023-04-06T11:51:25;2.20;;;2.00;;
10725;SDS011;5414;59.782;16.378;2023-04-06T11:53:51;2.80;;;2.00;;
10725;SDS011;5414;59.782;16.378;2023-04-06T11:56:24;2.90;;;2.17;;
10725;SDS011;5414;59.782;16.378;2023-04-06T11:58:51;2.60;;;2.10;;
10725;SDS011;5414;59.782;16.378;2023-04-06T12:01:17;2.60;;;2.40;;
10725;SDS011;5414;59.782;16.378;2023-04-06T12:03:43;2.17;;;2.00;;
10725;SDS011;5414;59.782;16.378;2023-04-06T12:06:09;2.50;;;2.13;;
10725;SDS011;5414;59.782;16.378;2023-04-06T12:08:35;2.73;;;2.30;;
10725;SDS011;5414;59.782;16.378;2023-04-06T12:11:01;2.60;;;2.13;;
10725;SDS011;5414;59.782;16.378;2023-04-06T12:13:27;2.60;;;2.30;;
10725;SDS011;5414;59.782;16.378;2023-04-06T12:15:53;3.23;;;2.07;;
10725;SDS011;5414;59.782;16.378;2023-04-06T12:18:20;2.90;;;2.20;;
10725;SDS011;5414;59.782;16.378;2023-04-06T12:20:46;2.20;;;2.00;;
10725;SDS011;5414;59.782;16.378;2023-04-06T12:23:12;3.13;;;2.10;;
10725;SDS011;5414;59.782;16.378;2023-04-06T12:25:41;1.93;;;1.80;;
10725;SDS011;5414;59.782;16.378;2023-04-06T12:28:07;2.13;;;1.77;;
10725;SDS011;5414;59.782;16.378;2023-04-06T12:30:36;2.60;;;2.40;;
10725;SDS011;5414;59.782;16.378;2023-04-06T12:33:03;2.20;;;2.00;;
10725;SDS011;5414;59.782;16.378;2023-04-06T12:35:33;3.90;;;1.87;;
10725;SDS011;5414;59.782;16.378;2023-04-06T12:38:00;2.07;;;1.80;;
10725;SDS011;5414;59.782;16.378;2023-04-06T12:40:26;2.23;;;1.80;;
10725;SDS011;5414;59.782;16.378;2023-04-06T12:42:52;1.97;;;1.70;;
10725;SDS011;5414;59.782;16.378;2023-04-06T12:45:19;2.10;;;1.67;;
10725;SDS011;5414;59.782;16.378;2023-04-06T12:47:45;1.93;;;1.80;;
10725;SDS011;5414;59.782;16.378;2023-04-06T12:50:11;2.07;;;1.87;;
10725;SDS011;5414;59.782;16.378;2023-04-06T12:52:37;2.20;;;1.63;;
10725;SDS011;5414;59.782;16.378;2023-04-06T12:55:04;2.83;;;1.63;;
10725;SDS011;5414;59.782;16.378;2023-04-06T12:57:31;2.17;;;2.00;;
10725;SDS011;5414;59.782;16.378;2023-04-06T12:59:57;2.60;;;2.10;;
10725;SDS011;5414;59.782;16.378;2023-04-06T13:02:23;3.67;;;2.20;;
10725;SDS011;5414;59.782;16.378;2023-04-06T13:04:49;3.80;;;2.10;;
10725;SDS011;5414;59.782;16.378;2023-04-06T13:07:15;2.50;;;2.20;;
10725;SDS011;5414;59.782;16.378;2023-04-06T13:09:42;2.60;;;2.27;;
10725;SDS011;5414;59.782;16.378;2023-04-06T13:12:08;3.83;;;2.60;;
10725;SDS011;5414;59.782;16.378;2023-04-06T13:14:34;2.57;;;2.37;;
10725;SDS011;5414;59.782;16.378;2023-04-06T13:17:00;2.30;;;2.10;;
10725;SDS011;5414;59.782;16.378;2023-04-06T13:19:26;2.37;;;2.00;;
10725;SDS011;5414;59.782;16.378;2023-04-06T13:21:53;3.53;;;2.10;;
10725;SDS011;5414;59.782;16.378;2023-04-06T13:24:19;1.80;;;1.70;;
10725;SDS011;5414;59.782;16.378;2023-04-06T13:26:47;2.10;;;1.90;;
10725;SDS011;5414;59.782;16.378;2023-04-06T13:29:13;2.60;;;2.40;;
10725;SDS011;5414;59.782;16.378;2023-04-06T13:31:39;2.20;;;2.00;;
10725;SDS011;5414;59.782;16.378;2023-04-06T13:34:06;2.43;;;1.87;;
10725;SDS011;5414;59.782;16.378;2023-04-06T13:36:32;2.90;;;1.97;;
10725;SDS011;5414;59.782;16.378;2023-04-06T13:38:58;2.23;;;2.00;;
10725;SDS011;5414;59.782;16.378;2023-04-06T13:41:25;2.37;;;1.90;;
10725;SDS011;5414;59.782;16.378;2023-04-06T13:43:51;2.33;;;2.10;;
10725;SDS011;5414;59.782;16.378;2023-04-06T13:46:17;1.50;;;1.40;;
10725;SDS011;5414;59.782;16.378;2023-04-06T13:48:45;3.43;;;1.77;;
10725;SDS011;5414;59.782;16.378;2023-04-06T13:51:12;3.23;;;2.20;;
10725;SDS011;5414;59.782;16.378;2023-04-06T13:53:38;2.70;;;2.00;;
10725;SDS011;5414;59.782;16.378;2023-04-06T13:56:05;2.20;;;2.00;;
10725;SDS011;5414;59.782;16.378;2023-04-06T13:58:31;2.20;;;2.00;;
10725;SDS011;5414;59.782;16.378;2023-04-06T14:01:04;2.60;;;2.40;;
10725;SDS011;5414;59.782;16.378;2023-04-06T14:03:31;2.40;;;2.03;;
10725;SDS011;5414;59.782;16.378;2023-04-06T14:05:58;2.70;;;2.47;;
10725;SDS011;5414;59.782;16.378;2023-04-06T14:08:24;2.17;;;1.97;;
10725;SDS011;5414;59.782;16.378;2023-04-06T14:10:50;2.40;;;2.20;;
10725;SDS011;5414;59.782;16.378;2023-04-06T14:13:16;2.63;;;2.30;;
10725;SDS011;5414;59.782;16.378;2023-04-06T14:15:43;2.63;;;2.33;;
10725;SDS011;5414;59.782;16.378;2023-04-06T14:18:09;2.97;;;2.00;;
10725;SDS011;5414;59.782;16.378;2023-04-06T14:20:37;1.87;;;1.77;;
10725;SDS011;5414;59.782;16.378;2023-04-06T14:23:03;2.33;;;2.10;;
10725;SDS011;5414;59.782;16.378;2023-04-06T14:25:29;5.67;;;2.30;;
10725;SDS011;5414;59.782;16.378;2023-04-06T14:27:59;2.30;;;2.10;;
10725;SDS011;5414;59.782;16.378;2023-04-06T14:30:26;2.83;;;1.90;;
10725;SDS011;5414;59.782;16.378;2023-04-06T14:32:52;2.37;;;2.17;;
10725;SDS011;5414;59.782;16.378;2023-04-06T14:35:18;2.70;;;2.40;;
10725;SDS011;5414;59.782;16.378;2023-04-06T14:37:44;2.90;;;2.50;;
10725;SDS011;5414;59.782;16.378;2023-04-06T14:40:11;2.70;;;2.50;;
10725;SDS011;5414;59.782;16.378;2023-04-06T14:42:37;3.37;;;2.40;;
10725;SDS011;5414;59.782;16.378;2023-04-06T14:45:03;3.23;;;2.13;;
10725;SDS011;5414;59.782;16.378;2023-04-06T14:47:29;2.73;;;2.50;;
10725;SDS011;5414;59.782;16.378;2023-04-06T14:49:55;3.50;;;2.37;;
10725;SDS011;5414;59.782;16.378;2023-04-06T14:52:22;2.40;;;2.20;;
10725;SDS011;5414;59.782;16.378;2023-04-06T14:54:48;3.47;;;2.80;;
10725;SDS011;5414;59.782;16.378;2023-04-06T14:57:14;2.40;;;2.20;;